Time;durP1;ratioP1;P1;durP2;ratioP2;P2;SDS_P1;SDS_P2;PMS_P1;PMS_P2;Temp;Humidity;BMP_temperature;BMP_pressure;BME280_temperature;BME280_humidity;BME280_pressure;Samples;Min_cycle;Max_cycle;Signal;HPM_P1;HPM_P2
2022/10/02 00:02:36;;;;;;;;;;;19.50;99.90;;;;;;5154239;27;19910;-73
2022/10/02 00:05:05;;;;;;;;;;;19.40;99.90;;;;;;5153630;27;19903;-73
2022/10/02 00:07:36;;;;;;;;;;;19.40;99.90;;;;;;5153885;27;19936;-74
2022/10/02 00:10:05;;;;;;;;;;;19.40;99.90;;;;;;5153537;27;19972;-73
2022/10/02 00:12:33;;;;;;;;;;;19.40;99.90;;;;;;5153932;27;19903;-73
2022/10/02 00:15:26;;;;;;;;;;;19.40;99.90;;;;;;5153284;27;20014;-74
2022/10/02 00:17:54;;;;;;;;;;;19.40;99.90;;;;;;5153753;27;19909;-73
2022/10/02 00:20:22;;;;;;;;;;;19.50;99.90;;;;;;5153349;27;19903;-73
2022/10/02 00:22:54;;;;;;;;;;;19.50;99.90;;;;;;5151755;27;19946;-73
2022/10/02 00:25:22;;;;;;;;;;;19.40;99.90;;;;;;5153597;27;19903;-74
2022/10/02 00:27:57;;;;;;;;;;;19.50;99.90;;;;;;5153323;27;20361;-74
2022/10/02 00:30:23;;;;;;;;;;;19.40;99.90;;;;;;5153456;27;19907;-73
2022/10/02 00:32:55;;;;;;;;;;;19.40;99.90;;;;;;5153249;27;19998;-73
2022/10/02 00:35:39;;;;;;;;;;;19.40;99.90;;;;;;5153310;27;19922;-73
2022/10/02 00:38:05;;;;;;;;;;;19.30;99.90;;;;;;5153362;27;19903;-73
2022/10/02 00:40:36;;;;;;;;;;;19.20;99.90;;;;;;5152848;27;20005;-73
2022/10/02 00:43:21;;;;;;;;;;;19.20;99.90;;;;;;5153183;27;20000;-73
2022/10/02 00:45:59;;;;;;;;;;;19.20;99.90;;;;;;5153080;27;19907;-73
2022/10/02 00:48:34;;;;;;;;;;;19.20;99.90;;;;;;5152983;27;19911;-73
2022/10/02 00:51:09;;;;;;;;;;;19.20;99.90;;;;;;5151529;27;19903;-73
2022/10/02 00:53:53;;;;;;;;;;;19.20;99.90;;;;;;5153224;27;20327;-73
2022/10/02 00:56:42;;;;;;;;;;;19.20;99.90;;;;;;5152801;27;20359;-73
2022/10/02 00:59:20;;;;;;;;;;;19.20;99.90;;;;;;5132783;27;19910;-73
2022/10/02 01:02:03;;;;;;;;;;;19.30;99.90;;;;;;5152540;27;19903;-73
2022/10/02 01:04:32;;;;;;;;;;;19.30;99.90;;;;;;5152402;27;19903;-73
2022/10/02 01:06:58;;;;;;;;;;;19.30;99.90;;;;;;5152783;27;19979;-73
2022/10/02 01:09:24;;;;;;;;;;;19.30;99.90;;;;;;5151125;27;19907;-73
2022/10/02 01:11:50;;;;;;;;;;;19.30;99.90;;;;;;5151031;27;19903;-73
2022/10/02 01:14:16;;;;;;;;;;;19.30;99.90;;;;;;5147551;27;19937;-74
2022/10/02 01:16:43;;;;;;;;;;;19.30;99.90;;;;;;5152676;27;20268;-73
2022/10/02 01:19:35;;;;;;;;;;;19.40;99.90;;;;;;5151239;27;20042;-73
2022/10/02 01:22:07;;;;;;;;;;;19.30;99.90;;;;;;5150345;27;19903;-74
2022/10/02 01:24:38;;;;;;;;;;;19.40;99.90;;;;;;5152862;27;19916;-73
2022/10/02 01:27:04;;;;;;;;;;;19.40;99.90;;;;;;5151977;27;19906;-73
2022/10/02 01:29:30;;;;;;;;;;;19.40;99.90;;;;;;5151907;27;19913;-74
2022/10/02 01:31:56;;;;;;;;;;;19.30;99.90;;;;;;5152537;27;19915;-73
2022/10/02 01:34:22;;;;;;;;;;;19.30;99.90;;;;;;5151363;27;19926;-74
2022/10/02 01:36:48;;;;;;;;;;;19.30;99.90;;;;;;5152530;27;19903;-74
2022/10/02 01:39:14;;;;;;;;;;;19.40;99.90;;;;;;5152790;27;19917;-74
2022/10/02 01:41:42;;;;;;;;;;;19.40;99.90;;;;;;5152621;27;19987;-73
2022/10/02 01:44:09;;;;;;;;;;;19.50;99.90;;;;;;5152493;27;19994;-74
2022/10/02 01:46:40;;;;;;;;;;;19.50;99.90;;;;;;5152820;27;20050;-73
2022/10/02 01:49:09;;;;;;;;;;;19.50;99.90;;;;;;5152365;27;19956;-74
2022/10/02 01:51:44;;;;;;;;;;;19.50;99.90;;;;;;5150937;27;19910;-73
2022/10/02 01:54:17;;;;;;;;;;;19.50;99.90;;;;;;5151173;27;20314;-73
2022/10/02 01:57:01;;;;;;;;;;;19.40;99.90;;;;;;5151370;27;20061;-73
2022/10/02 01:59:27;;;;;;;;;;;19.20;99.90;;;;;;5151999;27;20300;-74
2022/10/02 02:01:59;;;;;;;;;;;19.20;99.90;;;;;;5152035;27;19907;-73
2022/10/02 02:04:28;;;;;;;;;;;19.20;99.90;;;;;;5152453;27;19959;-73
2022/10/02 02:07:14;;;;;;;;;;;19.20;99.90;;;;;;5152282;27;19907;-73
2022/10/02 02:10:01;;;;;;;;;;;19.10;99.90;;;;;;5152055;27;19975;-73
2022/10/02 02:12:35;;;;;;;;;;;19.00;99.90;;;;;;5152248;27;19938;-74
2022/10/02 02:15:07;;;;;;;;;;;19.00;99.90;;;;;;5150425;27;19915;-74
2022/10/02 02:17:36;;;;;;;;;;;19.10;99.90;;;;;;5154221;27;19907;-74
2022/10/02 02:20:06;;;;;;;;;;;19.10;99.90;;;;;;5156310;27;19903;-73
2022/10/02 02:22:35;;;;;;;;;;;19.10;99.90;;;;;;5156314;27;19903;-74
2022/10/02 02:25:12;;;;;;;;;;;19.10;99.90;;;;;;5155973;27;19910;-74
2022/10/02 02:27:40;;;;;;;;;;;19.10;99.90;;;;;;5154375;27;19914;-73
2022/10/02 02:30:10;;;;;;;;;;;19.20;99.90;;;;;;5155792;27;19903;-73
2022/10/02 02:32:39;;;;;;;;;;;19.20;99.90;;;;;;5155550;27;19903;-73
2022/10/02 02:35:17;;;;;;;;;;;19.20;99.90;;;;;;5155927;27;19936;-74
2022/10/02 02:37:44;;;;;;;;;;;19.20;99.90;;;;;;5155723;27;19903;-74
2022/10/02 02:40:16;;;;;;;;;;;19.30;99.90;;;;;;5155817;27;20019;-73
2022/10/02 02:42:46;;;;;;;;;;;19.30;99.90;;;;;;5155600;27;19903;-73
2022/10/02 02:45:15;;;;;;;;;;;19.30;99.90;;;;;;5155377;27;19903;-73
2022/10/02 02:47:44;;;;;;;;;;;19.20;99.90;;;;;;5155297;27;19911;-74
2022/10/02 02:50:16;;;;;;;;;;;19.20;99.90;;;;;;5153873;27;20006;-74
2022/10/02 02:52:49;;;;;;;;;;;19.20;99.90;;;;;;5155745;27;19909;-74
2022/10/02 02:55:17;;;;;;;;;;;19.20;99.90;;;;;;5155261;27;20248;-73
2022/10/02 02:58:07;;;;;;;;;;;19.20;99.90;;;;;;5155416;27;19903;-73
2022/10/02 03:00:33;;;;;;;;;;;19.20;99.90;;;;;;5153838;27;20419;-73
2022/10/02 03:02:59;;;;;;;;;;;19.20;99.90;;;;;;5155204;27;19903;-74
2022/10/02 03:05:26;;;;;;;;;;;19.20;99.90;;;;;;5155250;27;20346;-74
2022/10/02 03:07:52;;;;;;;;;;;19.10;99.90;;;;;;5155178;27;19911;-73
2022/10/02 03:10:29;;;;;;;;;;;19.20;99.90;;;;;;5155121;27;19903;-74
2022/10/02 03:13:14;;;;;;;;;;;19.20;99.90;;;;;;5155542;27;19979;-74
2022/10/02 03:15:46;;;;;;;;;;;19.20;99.90;;;;;;5153401;27;19958;-73
2022/10/02 03:18:42;;;;;;;;;;;19.20;99.90;;;;;;5155157;27;20018;-73
2022/10/02 03:21:13;;;;;;;;;;;19.20;99.90;;;;;;5111390;28;19904;-73
2022/10/02 03:23:47;;;;;;;;;;;19.30;99.90;;;;;;5111629;28;19904;-74
2022/10/02 03:26:17;;;;;;;;;;;19.30;99.90;;;;;;5111445;28;19957;-74
2022/10/02 03:28:48;;;;;;;;;;;19.30;99.90;;;;;;5111159;28;20080;-74
2022/10/02 03:31:14;;;;;;;;;;;19.30;99.90;;;;;;5111076;28;19908;-73
2022/10/02 03:33:41;;;;;;;;;;;19.40;99.90;;;;;;5111162;28;19904;-74
2022/10/02 03:36:09;;;;;;;;;;;19.40;99.90;;;;;;5111462;28;19903;-74
2022/10/02 03:38:35;;;;;;;;;;;19.40;99.90;;;;;;5110933;28;19904;-74
2022/10/02 03:41:01;;;;;;;;;;;19.30;99.90;;;;;;5110884;28;19961;-73
2022/10/02 03:43:28;;;;;;;;;;;19.30;99.90;;;;;;5111257;28;19988;-73
2022/10/02 03:45:54;;;;;;;;;;;19.30;99.90;;;;;;5093610;28;19975;-74
2022/10/02 03:48:20;;;;;;;;;;;19.30;99.90;;;;;;5093640;28;20263;-73
2022/10/02 03:50:45;;;;;;;;;;;19.20;99.90;;;;;;5111045;28;19956;-73
2022/10/02 03:53:15;;;;;;;;;;;19.20;99.90;;;;;;5110803;28;19904;-73
2022/10/02 03:55:51;;;;;;;;;;;19.20;99.90;;;;;;5110607;28;19904;-73
2022/10/02 03:58:29;;;;;;;;;;;19.20;99.90;;;;;;5146583;27;19903;-74
2022/10/02 04:01:03;;;;;;;;;;;19.30;99.90;;;;;;5154115;27;19903;-73
2022/10/02 04:03:42;;;;;;;;;;;19.30;99.90;;;;;;5152474;27;19910;-74
2022/10/02 04:06:13;;;;;;;;;;;19.30;99.90;;;;;;5154292;27;19903;-73
2022/10/02 04:08:48;;;;;;;;;;;19.30;99.90;;;;;;5153879;27;20310;-74
2022/10/02 04:11:17;;;;;;;;;;;19.30;99.90;;;;;;5154133;27;19907;-73
2022/10/02 04:13:48;;;;;;;;;;;19.40;99.90;;;;;;5154034;27;19967;-74
2022/10/02 04:16:26;;;;;;;;;;;19.40;99.90;;;;;;5153659;27;19998;-73
2022/10/02 04:18:54;;;;;;;;;;;19.30;99.90;;;;;;5154238;27;19914;-73
2022/10/02 04:21:39;;;;;;;;;;;19.30;99.90;;;;;;5153688;27;19948;-74
2022/10/02 04:24:20;;;;;;;;;;;19.40;99.90;;;;;;5153952;27;19989;-73
2022/10/02 04:26:52;;;;;;;;;;;19.30;99.90;;;;;;5153557;27;19926;-73
2022/10/02 04:29:23;;;;;;;;;;;19.30;99.90;;;;;;5153955;27;19911;-73
2022/10/02 04:31:57;;;;;;;;;;;19.30;99.90;;;;;;5151976;27;19903;-74
2022/10/02 04:34:23;;;;;;;;;;;19.20;99.90;;;;;;5154056;27;19906;-73
2022/10/02 04:37:01;;;;;;;;;;;19.20;99.90;;;;;;5153287;27;19984;-73
2022/10/02 04:39:48;;;;;;;;;;;19.20;99.90;;;;;;5152839;27;19926;-73
2022/10/02 04:42:22;;;;;;;;;;;19.20;99.90;;;;;;5153583;27;19994;-73
2022/10/02 04:44:48;;;;;;;;;;;19.20;99.90;;;;;;5153324;27;19959;-73
2022/10/02 04:47:32;;;;;;;;;;;19.20;99.90;;;;;;5153329;27;19915;-73
2022/10/02 04:49:58;;;;;;;;;;;19.20;99.90;;;;;;5153008;27;19903;-74
2022/10/02 04:52:33;;;;;;;;;;;19.20;99.90;;;;;;5153274;27;19929;-73
2022/10/02 04:55:11;;;;;;;;;;;19.20;99.90;;;;;;5151425;27;20266;-73
2022/10/02 04:57:44;;;;;;;;;;;19.20;99.90;;;;;;5153381;27;20330;-73
2022/10/02 05:00:15;;;;;;;;;;;19.30;99.90;;;;;;5151714;27;20012;-74
2022/10/02 05:02:55;;;;;;;;;;;19.30;99.90;;;;;;5152977;27;20334;-74
2022/10/02 05:05:31;;;;;;;;;;;19.30;99.90;;;;;;5153346;27;20329;-73
2022/10/02 05:08:15;;;;;;;;;;;19.30;99.90;;;;;;5151377;27;19918;-73
2022/10/02 05:10:47;;;;;;;;;;;19.30;99.90;;;;;;5151326;27;19918;-73
2022/10/02 05:13:28;;;;;;;;;;;19.30;99.90;;;;;;5152966;27;19923;-72
2022/10/02 05:16:28;;;;;;;;;;;19.30;99.90;;;;;;5152511;27;19919;-73
2022/10/02 05:19:19;;;;;;;;;;;19.30;99.90;;;;;;5152680;27;19907;-73
2022/10/02 05:21:48;;;;;;;;;;;19.30;99.90;;;;;;5152823;27;19948;-72
2022/10/02 05:24:37;;;;;;;;;;;19.20;99.90;;;;;;5152886;27;19966;-73
2022/10/02 05:27:25;;;;;;;;;;;19.20;99.90;;;;;;5145680;27;19903;-72
2022/10/02 05:30:11;;;;;;;;;;;19.20;99.90;;;;;;5151160;27;19914;-73
2022/10/02 05:32:49;;;;;;;;;;;19.20;99.90;;;;;;5152786;27;19903;-73
2022/10/02 05:35:25;;;;;;;;;;;19.20;99.90;;;;;;5152652;27;20002;-72
2022/10/02 05:37:54;;;;;;;;;;;19.60;99.90;;;;;;5151080;27;19903;-73
2022/10/02 05:40:30;;;;;;;;;;;20.80;99.90;;;;;;5152822;27;20377;-73
2022/10/02 05:43:02;;;;;;;;;;;22.10;99.90;;;;;;5152729;27;19947;-74
2022/10/02 05:45:31;;;;;;;;;;;23.20;99.90;;;;;;5153024;27;19910;-74
2022/10/02 05:48:03;;;;;;;;;;;24.00;99.90;;;;;;5152538;27;20390;-73
2022/10/02 05:50:32;;;;;;;;;;;25.00;99.90;;;;;;5151007;27;19948;-73
2022/10/02 05:53:24;;;;;;;;;;;26.10;99.90;;;;;;5155041;27;19910;-73
2022/10/02 05:55:57;;;;;;;;;;;26.80;99.90;;;;;;5112683;28;19915;-73
2022/10/02 05:58:30;;;;;;;;;;;28.10;99.90;;;;;;5113390;28;19914;-73
2022/10/02 06:00:55;;;;;;;;;;;28.80;99.90;;;;;;5112931;28;19903;-73
2022/10/02 06:03:25;;;;;;;;;;;29.80;99.90;;;;;;5095733;28;19923;-74
2022/10/02 06:05:54;;;;;;;;;;;30.60;99.90;;;;;;5112803;28;19908;-73
2022/10/02 06:08:24;;;;;;;;;;;31.00;99.90;;;;;;5112668;28;19950;-74
2022/10/02 06:10:53;;;;;;;;;;;31.30;99.30;;;;;;5112750;28;20251;-74
2022/10/02 06:13:45;;;;;;;;;;;31.80;99.00;;;;;;5112820;28;19907;-75
2022/10/02 06:16:13;;;;;;;;;;;33.00;98.10;;;;;;5109503;28;20463;-74
2022/10/02 06:18:42;;;;;;;;;;;34.30;97.00;;;;;;5112409;28;19904;-74
2022/10/02 06:21:10;;;;;;;;;;;34.90;96.00;;;;;;5112626;28;19966;-74
2022/10/02 06:23:41;;;;;;;;;;;35.70;95.30;;;;;;5112373;28;20256;-74
2022/10/02 06:26:24;;;;;;;;;;;35.50;94.80;;;;;;5112478;28;19904;-74
2022/10/02 06:28:59;;;;;;;;;;;35.40;94.50;;;;;;5112668;28;19943;-74
2022/10/02 06:31:41;;;;;;;;;;;35.60;94.50;;;;;;5112342;27;19904;-73
2022/10/02 06:34:09;;;;;;;;;;;35.00;94.40;;;;;;5155698;27;19903;-74
2022/10/02 06:36:38;;;;;;;;;;;34.90;94.80;;;;;;5155966;27;20203;-74
2022/10/02 06:39:23;;;;;;;;;;;34.60;94.80;;;;;;5155789;27;19913;-75
2022/10/02 06:42:18;;;;;;;;;;;35.20;94.50;;;;;;5156043;27;20315;-74
2022/10/02 06:45:02;;;;;;;;;;;34.70;94.10;;;;;;5117198;27;19915;-74
2022/10/02 06:47:33;;;;;;;;;;;34.70;94.50;;;;;;5154336;27;20002;-75
2022/10/02 06:50:02;;;;;;;;;;;34.30;94.20;;;;;;5155645;27;19964;-74
2022/10/02 06:52:37;;;;;;;;;;;34.20;94.20;;;;;;5155520;27;19947;-74
2022/10/02 06:55:16;;;;;;;;;;;33.70;94.90;;;;;;5155451;27;19903;-74
2022/10/02 06:57:48;;;;;;;;;;;33.80;94.80;;;;;;5155242;27;20138;-75
2022/10/02 07:00:17;;;;;;;;;;;34.70;94.20;;;;;;5155334;27;20367;-75
2022/10/02 07:03:01;;;;;;;;;;;34.80;93.90;;;;;;5154716;27;20002;-76
2022/10/02 07:05:39;;;;;;;;;;;34.90;93.70;;;;;;5155471;27;20460;-74
2022/10/02 07:08:05;;;;;;;;;;;35.10;93.70;;;;;;5155375;27;20067;-75
2022/10/02 07:10:43;;;;;;;;;;;35.40;93.70;;;;;;5154976;27;20417;-75
2022/10/02 07:13:15;;;;;;;;;;;35.30;93.90;;;;;;5154911;27;19903;-75
2022/10/02 07:15:41;;;;;;;;;;;35.10;93.50;;;;;;5154339;27;20366;-75
2022/10/02 07:18:36;;;;;;;;;;;34.60;94.80;;;;;;5155197;27;19914;-75
2022/10/02 07:21:17;;;;;;;;;;;34.60;94.20;;;;;;5145107;27;19910;-75
2022/10/02 07:23:46;;;;;;;;;;;34.70;94.60;;;;;;5154760;27;19916;-75
2022/10/02 07:26:26;;;;;;;;;;;34.20;94.50;;;;;;5154513;27;19989;-75
2022/10/02 07:28:58;;;;;;;;;;;33.60;95.10;;;;;;5154526;27;20002;-75
2022/10/02 07:31:44;;;;;;;;;;;32.40;95.50;;;;;;5153175;27;19903;-76
2022/10/02 07:34:20;;;;;;;;;;;31.70;96.20;;;;;;5154717;27;19931;-76
2022/10/02 07:40:00;;;;;;;;;;;30.10;98.00;;;;;;5154646;27;20051;-76
2022/10/02 07:42:32;;;;;;;;;;;29.60;98.40;;;;;;5154551;27;20015;-75
2022/10/02 07:45:03;;;;;;;;;;;29.30;98.80;;;;;;5152888;27;19925;-75
2022/10/02 07:47:29;;;;;;;;;;;29.10;98.70;;;;;;5154233;27;19950;-75
2022/10/02 07:50:01;;;;;;;;;;;29.10;99.20;;;;;;5154704;27;20042;-76
2022/10/02 07:52:54;;;;;;;;;;;28.90;99.40;;;;;;5154639;27;19993;-75
2022/10/02 07:55:23;;;;;;;;;;;28.50;99.70;;;;;;5154690;27;19995;-76
2022/10/02 07:57:54;;;;;;;;;;;28.70;99.10;;;;;;5154391;27;20003;-76
2022/10/02 08:00:22;;;;;;;;;;;28.80;99.10;;;;;;5154009;27;19934;-76
2022/10/02 08:02:55;;;;;;;;;;;28.80;98.60;;;;;;5153825;27;19907;-76
2022/10/02 08:05:26;;;;;;;;;;;28.40;99.10;;;;;;5153873;27;19903;-76
2022/10/02 08:08:26;;;;;;;;;;;28.40;99.60;;;;;;5154181;27;19979;-75
2022/10/02 08:11:28;;;;;;;;;;;28.60;99.00;;;;;;5153896;27;20350;-75
2022/10/02 08:14:01;;;;;;;;;;;28.70;99.60;;;;;;5153194;27;19903;-74
2022/10/02 08:16:31;;;;;;;;;;;28.90;99.10;;;;;;5153086;27;19922;-75
2022/10/02 08:19:17;;;;;;;;;;;28.90;99.10;;;;;;5153870;27;19903;-74
2022/10/02 08:21:46;;;;;;;;;;;28.40;99.20;;;;;;5153151;27;19910;-75
2022/10/02 08:24:18;;;;;;;;;;;28.50;99.30;;;;;;5151976;27;19903;-75
2022/10/02 08:26:48;;;;;;;;;;;28.70;99.40;;;;;;5153619;27;20390;-74
2022/10/02 08:29:40;;;;;;;;;;;28.50;99.30;;;;;;5153207;27;19946;-74
2022/10/02 08:32:10;;;;;;;;;;;28.70;99.50;;;;;;5151064;27;19938;-75
2022/10/02 08:34:37;;;;;;;;;;;28.90;98.90;;;;;;5153666;27;19967;-74
2022/10/02 08:37:09;;;;;;;;;;;28.60;98.70;;;;;;5153216;27;19907;-75
2022/10/02 08:39:38;;;;;;;;;;;28.40;99.20;;;;;;5153123;27;20322;-75
2022/10/02 08:42:10;;;;;;;;;;;28.40;99.30;;;;;;5153554;27;20005;-74
2022/10/02 08:45:01;;;;;;;;;;;28.60;99.40;;;;;;5153482;27;19916;-76
2022/10/02 08:47:35;;;;;;;;;;;28.60;98.50;;;;;;5153672;27;19907;-75
2022/10/02 08:50:01;;;;;;;;;;;28.30;99.00;;;;;;5153565;27;19907;-74
2022/10/02 08:52:27;;;;;;;;;;;28.10;99.40;;;;;;5152962;27;19909;-76
2022/10/02 08:55:11;;;;;;;;;;;28.20;99.70;;;;;;5152760;27;19910;-76
2022/10/02 08:57:37;;;;;;;;;;;28.30;99.70;;;;;;5153149;27;20219;-75
2022/10/02 09:00:18;;;;;;;;;;;28.20;99.60;;;;;;5152188;27;19968;-73
2022/10/02 09:02:56;;;;;;;;;;;28.20;99.90;;;;;;5137999;27;19908;-74
2022/10/02 09:05:22;;;;;;;;;;;28.10;99.90;;;;;;5132528;27;20009;-72
2022/10/02 09:08:07;;;;;;;;;;;27.90;99.90;;;;;;5150559;27;19950;-72
2022/10/02 09:10:57;;;;;;;;;;;27.40;99.90;;;;;;5132084;27;19994;-72
2022/10/02 09:13:44;;;;;;;;;;;27.20;99.90;;;;;;5119631;27;20237;-73
2022/10/02 09:16:11;;;;;;;;;;;26.80;99.90;;;;;;5132014;27;20283;-72
2022/10/02 09:18:39;;;;;;;;;;;27.10;99.90;;;;;;5132411;27;19915;-72
2022/10/02 09:21:11;;;;;;;;;;;27.50;99.90;;;;;;5139839;27;19910;-68
2022/10/02 09:23:56;;;;;;;;;;;27.70;99.90;;;;;;5152807;27;19998;-72
2022/10/02 09:26:28;;;;;;;;;;;27.80;99.90;;;;;;5154742;27;19910;-72
2022/10/02 09:28:56;;;;;;;;;;;27.60;99.90;;;;;;5156921;27;19911;-73
2022/10/02 09:31:33;;;;;;;;;;;27.60;99.90;;;;;;5157313;27;19907;-72
2022/10/02 09:34:18;;;;;;;;;;;27.60;99.90;;;;;;5139144;27;20247;-72
2022/10/02 09:36:44;;;;;;;;;;;27.40;99.90;;;;;;5136749;27;19903;-72
2022/10/02 09:39:25;;;;;;;;;;;27.20;99.90;;;;;;5136212;27;19911;-71
2022/10/02 09:41:51;;;;;;;;;;;27.40;99.90;;;;;;5136283;27;19946;-72
2022/10/02 09:44:33;;;;;;;;;;;27.40;99.90;;;;;;5136012;27;19934;-72
2022/10/02 09:47:06;;;;;;;;;;;27.30;99.90;;;;;;5136709;27;19918;-72
2022/10/02 09:49:34;;;;;;;;;;;27.30;99.90;;;;;;5138233;27;19915;-72
2022/10/02 09:52:06;;;;;;;;;;;26.90;99.90;;;;;;5145239;27;19907;-68
2022/10/02 09:54:35;;;;;;;;;;;26.90;99.90;;;;;;5135653;27;19948;-69
2022/10/02 09:57:01;;;;;;;;;;;27.10;99.90;;;;;;5136145;27;19994;-69
2022/10/02 09:59:29;;;;;;;;;;;27.00;99.90;;;;;;5134308;27;20043;-72
2022/10/02 10:02:19;;;;;;;;;;;27.10;99.90;;;;;;5135931;27;19930;-69
2022/10/02 10:05:07;;;;;;;;;;;27.20;99.90;;;;;;5135380;27;20438;-72
2022/10/02 10:07:33;;;;;;;;;;;26.90;99.90;;;;;;5135654;27;19921;-73
2022/10/02 10:10:11;;;;;;;;;;;26.90;99.90;;;;;;5133672;27;19903;-74
2022/10/02 10:12:40;;;;;;;;;;;27.00;99.90;;;;;;5134993;27;19996;-72
2022/10/02 10:15:16;;;;;;;;;;;27.30;99.90;;;;;;5135259;27;19993;-74
2022/10/02 10:17:55;;;;;;;;;;;27.70;99.90;;;;;;5133318;27;19903;-73
2022/10/02 10:20:45;;;;;;;;;;;27.80;99.90;;;;;;5151245;27;19911;-72
2022/10/02 10:23:23;;;;;;;;;;;27.50;99.90;;;;;;5156031;27;20322;-73
2022/10/02 10:25:51;;;;;;;;;;;27.20;99.90;;;;;;5155954;27;19906;-73
2022/10/02 10:28:44;;;;;;;;;;;27.60;99.90;;;;;;5155596;27;19922;-73
2022/10/02 10:31:28;;;;;;;;;;;27.80;99.90;;;;;;5156022;27;20291;-71
2022/10/02 10:34:25;;;;;;;;;;;27.90;99.90;;;;;;5155423;27;20362;-72
2022/10/02 10:40:17;;;;;;;;;;;27.90;99.90;;;;;;5091468;28;19904;-73
2022/10/02 10:42:52;;;;;;;;;;;27.70;99.90;;;;;;5092043;28;19919;-71
2022/10/02 10:45:33;;;;;;;;;;;27.90;99.90;;;;;;5091496;28;20340;-72
2022/10/02 10:48:12;;;;;;;;;;;28.10;99.90;;;;;;5091617;28;19912;-71
2022/10/02 10:50:47;;;;;;;;;;;28.10;99.90;;;;;;5091721;28;19904;-72
2022/10/02 10:53:27;;;;;;;;;;;27.80;99.90;;;;;;5091626;28;19908;-72
2022/10/02 10:56:11;;;;;;;;;;;27.80;99.90;;;;;;5091423;28;19915;-73
2022/10/02 10:58:49;;;;;;;;;;;27.60;99.90;;;;;;5091509;28;19904;-72
2022/10/02 11:01:18;;;;;;;;;;;27.50;99.90;;;;;;5074294;28;19944;-72
2022/10/02 11:03:57;;;;;;;;;;;27.50;99.90;;;;;;5091149;28;19915;-73
2022/10/02 11:06:36;;;;;;;;;;;27.60;99.90;;;;;;5074176;28;19904;-74
2022/10/02 11:09:13;;;;;;;;;;;27.60;99.90;;;;;;5091262;28;20044;-76
2022/10/02 11:11:49;;;;;;;;;;;27.80;99.90;;;;;;5146388;27;19910;-75
2022/10/02 11:14:27;;;;;;;;;;;28.00;99.90;;;;;;5154592;27;19907;-75
2022/10/02 11:16:59;;;;;;;;;;;28.10;99.90;;;;;;5154560;27;19915;-74
2022/10/02 11:19:34;;;;;;;;;;;28.30;99.90;;;;;;5154822;27;19915;-75
2022/10/02 11:22:06;;;;;;;;;;;28.50;99.90;;;;;;5154970;27;19910;-74
2022/10/02 11:24:54;;;;;;;;;;;28.60;99.90;;;;;;5154814;27;20252;-76
2022/10/02 11:27:29;;;;;;;;;;;28.50;99.90;;;;;;5155057;27;19917;-74
2022/10/02 11:30:11;;;;;;;;;;;28.60;99.90;;;;;;5154823;27;19965;-74
2022/10/02 11:33:12;;;;;;;;;;;28.80;99.90;;;;;;5154848;27;19903;-74
2022/10/02 11:35:53;;;;;;;;;;;29.00;99.90;;;;;;5090427;28;19904;-74
2022/10/02 11:38:41;;;;;;;;;;;29.10;99.90;;;;;;5147281;27;19919;-75
2022/10/02 11:41:15;;;;;;;;;;;29.10;99.90;;;;;;5154694;27;19903;-74
2022/10/02 11:43:44;;;;;;;;;;;29.40;99.90;;;;;;5154426;27;19911;-74
2022/10/02 11:46:34;;;;;;;;;;;29.50;99.90;;;;;;5154318;27;19926;-74
2022/10/02 11:49:19;;;;;;;;;;;29.50;99.90;;;;;;5153995;27;19918;-75
2022/10/02 11:51:59;;;;;;;;;;;29.30;99.90;;;;;;5154151;27;19907;-74
2022/10/02 11:54:44;;;;;;;;;;;29.40;99.90;;;;;;5154201;27;19914;-75
2022/10/02 11:57:13;;;;;;;;;;;29.50;99.90;;;;;;5153883;27;19907;-75
2022/10/02 11:59:39;;;;;;;;;;;29.30;99.90;;;;;;5154367;27;19982;-74
2022/10/02 12:02:07;;;;;;;;;;;29.10;99.90;;;;;;5153791;27;20002;-74
2022/10/02 12:04:37;;;;;;;;;;;29.30;99.90;;;;;;5153625;27;19907;-75
2022/10/02 12:07:19;;;;;;;;;;;29.40;99.90;;;;;;5153738;27;19903;-75
2022/10/02 12:09:53;;;;;;;;;;;29.50;99.90;;;;;;5153442;27;19964;-74
2022/10/02 12:12:38;;;;;;;;;;;29.40;99.90;;;;;;5153581;27;19903;-74
2022/10/02 12:15:25;;;;;;;;;;;29.10;99.90;;;;;;5153532;27;19962;-75
2022/10/02 12:18:10;;;;;;;;;;;29.20;99.90;;;;;;5152562;27;20365;-74
2022/10/02 12:29:39;;;;;;;;;;;29.80;99.90;;;;;;5153266;27;20029;-74
2022/10/02 12:32:25;;;;;;;;;;;29.80;99.90;;;;;;5152854;27;19906;-74
2022/10/02 12:35:09;;;;;;;;;;;29.40;99.90;;;;;;5153213;27;19910;-74
2022/10/02 12:37:53;;;;;;;;;;;29.40;99.90;;;;;;5152514;27;20287;-75
2022/10/02 12:40:32;;;;;;;;;;;29.60;99.90;;;;;;5152126;27;19903;-74
2022/10/02 12:43:01;;;;;;;;;;;29.80;99.90;;;;;;5152434;27;19917;-75
2022/10/02 12:45:42;;;;;;;;;;;30.00;99.90;;;;;;5153159;27;19990;-74
2022/10/02 12:48:14;;;;;;;;;;;29.80;99.90;;;;;;5152804;27;20055;-74
2022/10/02 12:51:03;;;;;;;;;;;29.60;99.90;;;;;;5152744;27;19911;-74
2022/10/02 12:53:44;;;;;;;;;;;29.70;99.90;;;;;;5151256;27;19903;-75
2022/10/02 12:56:36;;;;;;;;;;;29.80;99.90;;;;;;5152940;27;19910;-74
2022/10/02 12:59:12;;;;;;;;;;;29.70;99.90;;;;;;5149651;27;19951;-75
2022/10/02 13:01:56;;;;;;;;;;;29.80;99.90;;;;;;5152460;27;20043;-75
2022/10/02 13:04:22;;;;;;;;;;;30.00;99.90;;;;;;5152670;27;19957;-74
2022/10/02 13:07:06;;;;;;;;;;;30.00;99.90;;;;;;5152690;27;20299;-75
2022/10/02 13:09:32;;;;;;;;;;;30.00;99.90;;;;;;5152504;27;19911;-74
2022/10/02 13:12:01;;;;;;;;;;;30.00;99.90;;;;;;5152401;27;19993;-74
2022/10/02 13:14:36;;;;;;;;;;;29.90;99.90;;;;;;5152677;27;20258;-75
2022/10/02 13:17:08;;;;;;;;;;;29.80;99.90;;;;;;5152605;27;19990;-74
2022/10/02 13:19:36;;;;;;;;;;;29.80;99.90;;;;;;5150796;27;19921;-75
2022/10/02 13:22:21;;;;;;;;;;;29.60;99.90;;;;;;5152554;27;19914;-75
2022/10/02 13:24:56;;;;;;;;;;;29.50;99.90;;;;;;5152323;27;20377;-74
2022/10/02 13:27:31;;;;;;;;;;;29.10;99.90;;;;;;5152315;27;19907;-74
2022/10/02 13:30:05;;;;;;;;;;;29.30;99.90;;;;;;5152490;27;19907;-75
2022/10/02 13:32:37;;;;;;;;;;;29.50;99.90;;;;;;5150795;27;19902;-75
2022/10/02 13:35:21;;;;;;;;;;;29.70;99.90;;;;;;5152477;27;19903;-76
2022/10/02 13:38:05;;;;;;;;;;;29.50;99.90;;;;;;5152139;27;20327;-74
2022/10/02 13:40:37;;;;;;;;;;;29.40;99.90;;;;;;5151893;27;20062;-74
2022/10/02 13:43:33;;;;;;;;;;;29.50;99.90;;;;;;5152269;27;19997;-74
2022/10/02 13:46:08;;;;;;;;;;;29.20;99.90;;;;;;5087914;28;20279;-74
2022/10/02 13:48:36;;;;;;;;;;;29.20;99.90;;;;;;5088325;28;19958;-74
2022/10/02 13:51:05;;;;;;;;;;;28.90;99.90;;;;;;5088442;28;19904;-75
2022/10/02 13:53:46;;;;;;;;;;;29.20;99.90;;;;;;5088064;28;19957;-74
2022/10/02 13:56:23;;;;;;;;;;;29.40;99.90;;;;;;5088537;28;19999;-74
2022/10/02 13:58:49;;;;;;;;;;;29.40;99.90;;;;;;5088265;28;19943;-75
2022/10/02 14:01:23;;;;;;;;;;;29.30;99.90;;;;;;5088390;28;20331;-74
2022/10/02 14:04:09;;;;;;;;;;;29.50;99.90;;;;;;5087897;28;19908;-75
2022/10/02 14:06:39;;;;;;;;;;;29.40;99.90;;;;;;5070980;28;20006;-74
2022/10/02 14:09:16;;;;;;;;;;;29.40;99.90;;;;;;5070837;28;19912;-75
2022/10/02 14:12:00;;;;;;;;;;;29.40;99.90;;;;;;5088319;28;19904;-74
2022/10/02 14:14:29;;;;;;;;;;;29.50;99.90;;;;;;5074294;28;19919;-74
2022/10/02 14:16:55;;;;;;;;;;;29.40;99.90;;;;;;5091852;28;19950;-74
2022/10/02 14:19:29;;;;;;;;;;;29.60;99.90;;;;;;5091721;28;19943;-74
2022/10/02 14:21:58;;;;;;;;;;;29.60;99.90;;;;;;5111696;27;20385;-74
2022/10/02 14:27:36;;;;;;;;;;;29.60;99.90;;;;;;5155652;27;20401;-74
2022/10/02 14:30:06;;;;;;;;;;;29.60;99.90;;;;;;5155667;27;19911;-75
2022/10/02 14:32:47;;;;;;;;;;;29.60;99.90;;;;;;5155193;27;19963;-74
2022/10/02 14:35:31;;;;;;;;;;;29.60;99.90;;;;;;5155283;27;19999;-74
2022/10/02 14:37:57;;;;;;;;;;;29.40;99.90;;;;;;5155185;27;20005;-74
2022/10/02 14:40:27;;;;;;;;;;;29.20;99.90;;;;;;5155133;27;19942;-74
2022/10/02 14:43:31;;;;;;;;;;;29.30;99.90;;;;;;5155407;27;19914;-74
2022/10/02 14:46:01;;;;;;;;;;;29.10;99.90;;;;;;5155281;27;19950;-74
2022/10/02 14:48:45;;;;;;;;;;;29.10;99.90;;;;;;5155447;27;20078;-75
2022/10/02 14:51:22;;;;;;;;;;;29.10;99.90;;;;;;5155014;27;20407;-74
2022/10/02 14:53:49;;;;;;;;;;;29.20;99.90;;;;;;5155465;27;19926;-74
2022/10/02 14:56:27;;;;;;;;;;;29.20;99.90;;;;;;5155239;27;19903;-74
2022/10/02 14:58:56;;;;;;;;;;;29.00;99.90;;;;;;5155237;27;20370;-74
2022/10/02 15:01:22;;;;;;;;;;;28.80;99.90;;;;;;5154899;27;19903;-75
2022/10/02 15:04:06;;;;;;;;;;;28.90;99.90;;;;;;5155221;27;19910;-74
2022/10/02 15:06:51;;;;;;;;;;;28.70;99.90;;;;;;5156123;27;19903;-74
2022/10/02 15:09:23;;;;;;;;;;;28.80;99.90;;;;;;5155667;27;20347;-74
2022/10/02 15:12:01;;;;;;;;;;;29.00;99.90;;;;;;5156182;27;19914;-76
2022/10/02 15:14:27;;;;;;;;;;;29.00;99.90;;;;;;5155400;27;19909;-74
2022/10/02 15:20:02;;;;;;;;;;;29.00;99.90;;;;;;5155710;27;19914;-75
2022/10/02 15:22:34;;;;;;;;;;;29.00;99.90;;;;;;5154974;27;20334;-74
2022/10/02 15:25:15;;;;;;;;;;;29.00;99.90;;;;;;5154644;27;19926;-74